Time;durP1;ratioP1;P1;durP2;ratioP2;P2;SDS_P1;SDS_P2;PMS_P1;PMS_P2;Temp;Humidity;BMP_temperature;BMP_pressure;BME280_temperature;BME280_humidity;BME280_pressure;Samples;Min_cycle;Max_cycle;Signal;HPM_P1;HPM_P2
2023/12/03 00:00:43;;;;;;;0.43;0.43;;;-2.30;99.90;;;;;;5024780;28;20060;-84
2023/12/03 00:03:09;;;;;;;0.30;0.30;;;-2.30;99.90;;;;;;5023294;28;20033;-84
2023/12/03 00:05:37;;;;;;;0.90;0.63;;;-2.30;99.90;;;;;;5025044;28;20029;-84
2023/12/03 00:08:03;;;;;;;0.13;0.13;;;-2.30;99.90;;;;;;5024962;28;20087;-85
2023/12/03 00:10:30;;;;;;;0.10;0.10;;;-2.30;99.90;;;;;;5024592;28;20030;-86
2023/12/03 00:12:56;;;;;;;0.75;0.75;;;-2.40;99.90;;;;;;5024845;28;20037;-85
2023/12/03 00:15:22;;;;;;;0.30;0.30;;;-2.30;99.90;;;;;;5024207;28;20399;-86
2023/12/03 00:17:49;;;;;;;0.10;0.10;;;-2.40;99.90;;;;;;5024862;28;20107;-86
2023/12/03 00:20:15;;;;;;;0.10;0.10;;;-2.40;99.90;;;;;;5024358;28;20037;-83
2023/12/03 00:22:41;;;;;;;0.10;0.10;;;-2.50;99.90;;;;;;5024476;28;20463;-87
2023/12/03 00:25:07;;;;;;;0.10;0.10;;;-2.50;99.90;;;;;;5024944;28;20421;-87
2023/12/03 00:27:33;;;;;;;0.10;0.10;;;-2.50;99.90;;;;;;5025126;28;20033;-85
2023/12/03 00:29:58;;;;;;;1.70;1.60;;;-2.50;99.90;;;;;;5024173;28;20045;-84
2023/12/03 00:32:24;;;;;;;0.52;0.52;;;-2.50;99.90;;;;;;5027659;28;20072;-86
2023/12/03 00:34:50;;;;;;;0.10;0.10;;;-2.60;99.90;;;;;;5024005;28;20049;-85
2023/12/03 00:37:15;;;;;;;0.10;0.10;;;-2.60;99.90;;;;;;5022809;28;20128;-86
2023/12/03 00:39:41;;;;;;;0.15;0.15;;;-2.60;99.90;;;;;;5024332;28;20034;-85
2023/12/03 00:42:07;;;;;;;0.10;0.10;;;-2.60;99.90;;;;;;5024626;28;20026;-86
2023/12/03 00:44:33;;;;;;;0.10;0.10;;;-2.60;99.90;;;;;;5024880;28;20033;-85
2023/12/03 00:46:58;;;;;;;0.10;0.10;;;-2.70;99.90;;;;;;5029903;28;20052;-82
2023/12/03 00:49:24;;;;;;;0.13;0.13;;;-2.70;99.90;;;;;;5029240;28;20025;-87
2023/12/03 00:51:50;;;;;;;4.68;1.45;;;-2.70;99.90;;;;;;5024490;28;20032;-85
2023/12/03 00:54:17;;;;;;;0.10;0.10;;;-2.70;99.90;;;;;;5023151;28;20071;-85
2023/12/03 00:56:42;;;;;;;;;;;-2.70;99.90;;;;;;5024468;28;20029;-84
2023/12/03 00:59:08;;;;;;;0.93;0.77;;;-2.70;99.90;;;;;;5024200;28;19916;-85
2023/12/03 01:01:33;;;;;;;0.10;0.10;;;-2.70;99.90;;;;;;5023916;28;20037;-83
2023/12/03 01:03:59;;;;;;;0.40;0.40;;;-2.70;99.90;;;;;;5025131;28;20113;-86
2023/12/03 01:06:25;;;;;;;0.10;0.10;;;-2.80;99.90;;;;;;5023916;28;20045;-84
2023/12/03 01:08:50;;;;;;;0.20;0.20;;;-2.80;99.90;;;;;;5024400;28;20041;-86
2023/12/03 01:11:16;;;;;;;0.10;0.10;;;-2.80;99.90;;;;;;5024313;28;20026;-87
2023/12/03 01:13:42;;;;;;;0.10;0.10;;;-2.90;99.90;;;;;;5022779;28;20866;-88
2023/12/03 01:16:15;;;;;;;0.10;0.10;;;-2.90;99.90;;;;;;5027070;28;20033;-86
2023/12/03 01:18:41;;;;;;;0.20;0.20;;;-2.90;99.90;;;;;;5022532;28;20098;-86
2023/12/03 01:21:07;;;;;;;0.10;0.10;;;-2.80;99.90;;;;;;5023073;28;20029;-87
2023/12/03 01:23:32;;;;;;;0.10;0.10;;;-3.00;99.90;;;;;;5023833;28;20267;-86
2023/12/03 01:25:58;;;;;;;0.10;0.10;;;-2.90;99.90;;;;;;5023689;28;20060;-84
2023/12/03 01:28:24;;;;;;;0.10;0.10;;;-2.90;99.90;;;;;;5023778;28;20091;-86
2023/12/03 01:30:49;;;;;;;0.52;0.52;;;-2.90;99.90;;;;;;5024278;28;20087;-86
2023/12/03 01:33:15;;;;;;;0.20;0.20;;;-2.90;99.90;;;;;;5023538;28;20029;-83
2023/12/03 01:35:41;;;;;;;0.10;0.10;;;-3.00;99.90;;;;;;5023566;28;20029;-83
2023/12/03 01:38:07;;;;;;;1.20;1.20;;;-3.00;99.90;;;;;;5018689;28;20064;-84
2023/12/03 01:40:32;;;;;;;0.17;0.17;;;-3.00;99.90;;;;;;5022256;28;20048;-83
2023/12/03 01:42:59;;;;;;;3.88;1.85;;;-3.10;99.90;;;;;;5016561;28;20603;-83
2023/12/03 01:45:24;;;;;;;0.10;0.10;;;-3.10;99.90;;;;;;5023093;28;20124;-83
2023/12/03 01:47:50;;;;;;;0.45;0.45;;;-3.10;99.90;;;;;;5029319;28;20117;-83
2023/12/03 01:50:17;;;;;;;0.10;0.10;;;-3.10;99.90;;;;;;5023209;28;20116;-83
2023/12/03 01:52:42;;;;;;;0.10;0.10;;;-3.10;99.90;;;;;;5023703;28;20044;-83
2023/12/03 01:55:11;;;;;;;0.73;0.68;;;-3.00;99.90;;;;;;5023084;28;20029;-84
2023/12/03 01:57:37;;;;;;;0.10;0.10;;;-3.10;99.90;;;;;;5023390;28;20030;-83
2023/12/03 02:00:05;;;;;;;0.10;0.10;;;-3.20;99.90;;;;;;5023177;28;20044;-84
2023/12/03 02:02:31;;;;;;;0.90;0.90;;;-3.30;99.90;;;;;;5023280;28;20034;-84
2023/12/03 02:04:57;;;;;;;0.73;0.73;;;-3.30;99.90;;;;;;5021470;28;20033;-84
2023/12/03 02:07:23;;;;;;;0.20;0.20;;;-3.20;99.90;;;;;;5016151;28;20076;-85
2023/12/03 02:09:48;;;;;;;0.30;0.30;;;-3.20;99.90;;;;;;5022809;28;20044;-85
2023/12/03 02:12:14;;;;;;;0.10;0.10;;;-3.20;99.90;;;;;;5022525;28;20021;-85
2023/12/03 02:14:40;;;;;;;1.73;1.60;;;-3.20;99.90;;;;;;5021569;28;20057;-86
2023/12/03 02:17:06;;;;;;;0.20;0.20;;;-3.20;99.90;;;;;;5022895;28;20036;-86
2023/12/03 02:19:32;;;;;;;0.38;0.38;;;-3.20;99.90;;;;;;5022559;28;20032;-86
2023/12/03 02:21:57;;;;;;;0.20;0.20;;;-3.20;99.90;;;;;;5021279;28;20026;-86
2023/12/03 02:24:23;;;;;;;4.20;2.73;;;-3.20;99.90;;;;;;5022606;28;20064;-86
2023/12/03 02:26:49;;;;;;;0.28;0.28;;;-3.30;99.90;;;;;;5022643;28;20097;-86
2023/12/03 02:29:14;;;;;;;0.10;0.10;;;-3.30;99.90;;;;;;5021429;28;20046;-85
2023/12/03 02:31:40;;;;;;;0.10;0.10;;;-3.30;99.90;;;;;;5022485;28;20104;-86
2023/12/03 02:34:10;;;;;;;0.30;0.30;;;-3.30;99.90;;;;;;5020940;28;20108;-85
2023/12/03 02:36:37;;;;;;;0.10;0.10;;;-3.40;99.90;;;;;;5022402;28;20032;-85
2023/12/03 02:39:03;;;;;;;0.10;0.10;;;-3.40;99.90;;;;;;5019674;28;20040;-84
2023/12/03 02:41:28;;;;;;;0.45;0.45;;;-3.40;99.90;;;;;;5021636;28;20041;-85
2023/12/03 02:43:54;;;;;;;0.10;0.10;;;-3.40;99.90;;;;;;5023538;28;20570;-84
2023/12/03 02:46:20;;;;;;;0.52;0.52;;;-3.40;99.90;;;;;;5022854;28;20045;-84
2023/12/03 02:48:45;;;;;;;0.10;0.10;;;-3.40;99.90;;;;;;5029216;28;20037;-83
2023/12/03 02:51:11;;;;;;;0.20;0.20;;;-3.40;99.90;;;;;;5024309;28;20294;-83
2023/12/03 02:53:37;;;;;;;0.10;0.10;;;-3.40;99.90;;;;;;5022861;28;20084;-84
2023/12/03 02:56:04;;;;;;;0.98;0.75;;;-3.40;99.90;;;;;;5022269;28;20827;-83
2023/12/03 02:58:30;;;;;;;0.10;0.10;;;-3.40;99.90;;;;;;5025974;28;20625;-83
2023/12/03 03:00:56;;;;;;;0.10;0.10;;;-3.40;99.90;;;;;;5025957;28;20049;-83
2023/12/03 03:03:21;;;;;;;0.07;0.07;;;-3.40;99.90;;;;;;5026647;28;20400;-84
2023/12/03 03:05:47;;;;;;;0.10;0.10;;;-3.40;99.90;;;;;;5025488;28;20112;-84
2023/12/03 03:08:12;;;;;;;0.10;0.10;;;-3.40;99.90;;;;;;5018591;28;20045;-84
2023/12/03 03:10:38;;;;;;;0.10;0.10;;;-3.40;99.90;;;;;;5026326;28;20037;-84
2023/12/03 03:13:04;;;;;;;0.50;0.50;;;-3.40;99.90;;;;;;5025897;28;20516;-84
2023/12/03 03:15:30;;;;;;;1.60;1.55;;;-3.30;99.90;;;;;;5024492;28;20129;-84
2023/12/03 03:17:55;;;;;;;0.10;0.10;;;-3.30;99.90;;;;;;5026360;28;20785;-83
2023/12/03 03:20:22;;;;;;;0.35;0.35;;;-3.40;99.90;;;;;;5025640;28;20045;-84
2023/12/03 03:22:48;;;;;;;0.10;0.10;;;-3.40;99.90;;;;;;5025678;28;20040;-84
2023/12/03 03:25:15;;;;;;;0.10;0.10;;;-3.40;99.90;;;;;;5025640;28;20545;-84
2023/12/03 03:27:40;;;;;;;0.10;0.10;;;-3.30;99.90;;;;;;5025563;28;20508;-84
2023/12/03 03:30:07;;;;;;;0.20;0.20;;;-3.30;99.90;;;;;;5024735;28;20061;-86
2023/12/03 03:32:33;;;;;;;0.10;0.10;;;-3.30;99.90;;;;;;5025813;28;20041;-84
2023/12/03 03:34:59;;;;;;;0.10;0.10;;;-3.40;99.90;;;;;;5024626;28;20037;-83
2023/12/03 03:37:25;;;;;;;0.10;0.10;;;-3.40;99.90;;;;;;5024238;28;20038;-84
2023/12/03 03:39:51;;;;;;;0.10;0.10;;;-3.40;99.90;;;;;;5021692;28;20409;-83
2023/12/03 03:42:16;;;;;;;0.10;0.10;;;-3.40;99.90;;;;;;5016918;28;20025;-83
2023/12/03 03:44:42;;;;;;;2.90;1.40;;;-3.30;99.90;;;;;;5024834;28;20040;-83
2023/12/03 03:47:13;;;;;;;0.10;0.10;;;-3.40;99.90;;;;;;5017025;28;20845;-83
2023/12/03 03:49:39;;;;;;;0.10;0.10;;;-3.50;99.90;;;;;;5023371;28;20464;-83
2023/12/03 03:52:05;;;;;;;0.20;0.20;;;-3.50;99.90;;;;;;5025040;28;20035;-83
2023/12/03 03:54:31;;;;;;;0.45;0.45;;;-3.50;99.90;;;;;;5025272;28;20052;-83
2023/12/03 03:56:56;;;;;;;0.10;0.10;;;-3.50;99.90;;;;;;5024945;28;20100;-83
2023/12/03 03:59:22;;;;;;;0.10;0.10;;;-3.50;99.90;;;;;;5025139;28;20790;-83
2023/12/03 04:01:48;;;;;;;0.10;0.10;;;-3.50;99.90;;;;;;5025065;28;20400;-83
2023/12/03 04:04:13;;;;;;;0.10;0.10;;;-3.50;99.90;;;;;;5024705;28;20032;-83
2023/12/03 04:06:40;;;;;;;0.10;0.10;;;-3.50;99.90;;;;;;5024938;28;20650;-84
2023/12/03 04:09:07;;;;;;;;;;;-3.70;99.90;;;;;;5016771;28;20496;-82
2023/12/03 04:11:42;;;;;;;;;;;-3.60;99.90;;;;;;5025582;28;19917;-83
2023/12/03 04:14:09;;;;;;;0.10;0.10;;;-3.70;99.90;;;;;;5024836;28;19994;-84
2023/12/03 04:16:35;;;;;;;0.10;0.10;;;-3.60;99.90;;;;;;5025281;28;20021;-83
2023/12/03 04:19:01;;;;;;;0.20;0.20;;;-3.70;99.90;;;;;;5025011;28;20051;-84
2023/12/03 04:21:27;;;;;;;0.63;0.60;;;-3.70;99.90;;;;;;5024945;28;20317;-85
2023/12/03 04:23:52;;;;;;;0.20;0.20;;;-3.70;99.90;;;;;;5024932;28;20033;-84
2023/12/03 04:26:18;;;;;;;0.20;0.20;;;-3.60;99.90;;;;;;5024610;28;20022;-84
2023/12/03 04:28:44;;;;;;;0.20;0.20;;;-3.60;99.90;;;;;;5024312;28;20041;-84
2023/12/03 04:31:19;;;;;;;5.63;2.00;;;-3.60;99.90;;;;;;5024774;28;20746;-84
2023/12/03 04:33:45;;;;;;;0.10;0.10;;;-3.60;99.90;;;;;;5022656;28;20091;-84
2023/12/03 04:36:12;;;;;;;0.10;0.10;;;-3.60;99.90;;;;;;5024066;28;20013;-85
2023/12/03 04:38:37;;;;;;;0.20;0.20;;;-3.70;99.90;;;;;;5024543;28;20034;-85
2023/12/03 04:41:03;;;;;;;2.70;1.70;;;-3.70;99.90;;;;;;5024995;28;20096;-84
2023/12/03 04:43:29;;;;;;;0.28;0.28;;;-3.80;99.90;;;;;;5023607;28;20033;-82
2023/12/03 04:45:55;;;;;;;0.10;0.10;;;-3.80;99.90;;;;;;5024872;28;20029;-83
2023/12/03 04:48:20;;;;;;;0.10;0.10;;;-3.70;99.90;;;;;;5024646;28;20037;-83
2023/12/03 04:50:46;;;;;;;0.85;0.85;;;-3.70;99.90;;;;;;5024612;28;20039;-83
2023/12/03 04:53:12;;;;;;;0.30;0.30;;;-3.70;99.90;;;;;;5024069;28;20730;-84
2023/12/03 04:55:37;;;;;;;0.10;0.10;;;-3.70;99.90;;;;;;5024432;28;20022;-84
2023/12/03 04:58:03;;;;;;;0.40;0.40;;;-3.70;99.90;;;;;;5023990;28;20777;-83
2023/12/03 05:00:29;;;;;;;0.30;0.30;;;-3.70;99.90;;;;;;5023848;28;20538;-83
2023/12/03 05:02:54;;;;;;;0.25;0.25;;;-3.70;99.90;;;;;;5023179;28;20068;-83
2023/12/03 05:05:20;;;;;;;0.10;0.10;;;-3.70;99.90;;;;;;5023596;28;20096;-83
2023/12/03 05:07:46;;;;;;;0.10;0.10;;;-3.60;99.90;;;;;;5023436;28;20072;-83
2023/12/03 05:10:11;;;;;;;0.10;0.10;;;-3.70;99.90;;;;;;5022153;28;20386;-84
2023/12/03 05:12:38;;;;;;;0.70;0.70;;;-3.70;99.90;;;;;;5023942;28;20033;-86
2023/12/03 05:15:04;;;;;;;0.45;0.45;;;-3.60;99.90;;;;;;5023865;28;20080;-86
2023/12/03 05:17:29;;;;;;;0.85;0.85;;;-3.70;99.90;;;;;;5024668;28;20104;-87
2023/12/03 05:19:55;;;;;;;0.10;0.10;;;-3.60;99.90;;;;;;5022483;28;20579;-83
2023/12/03 05:22:20;;;;;;;0.10;0.10;;;-3.60;99.90;;;;;;5024145;28;20044;-87
2023/12/03 05:24:48;;;;;;;0.10;0.10;;;-3.60;99.90;;;;;;5023565;28;20093;-88
2023/12/03 05:27:14;;;;;;;0.10;0.10;;;-3.50;99.90;;;;;;5022331;28;20434;-86
2023/12/03 05:29:43;;;;;;;0.40;0.40;;;-3.50;99.90;;;;;;5022958;28;20050;-87
2023/12/03 05:32:10;;;;;;;0.10;0.10;;;-3.50;99.90;;;;;;5023804;28;20037;-85
2023/12/03 05:34:35;;;;;;;0.10;0.10;;;-3.50;99.90;;;;;;5023427;28;20021;-86
2023/12/03 05:37:01;;;;;;;0.10;0.10;;;-3.60;99.90;;;;;;5022967;28;20804;-85
2023/12/03 05:39:27;;;;;;;0.10;0.10;;;-3.60;99.90;;;;;;5022069;28;20021;-86
2023/12/03 05:41:53;;;;;;;0.10;0.10;;;-3.60;99.90;;;;;;5023385;28;20052;-85
2023/12/03 05:44:18;;;;;;;0.10;0.10;;;-3.60;99.90;;;;;;5023261;28;20397;-83
2023/12/03 05:46:44;;;;;;;0.10;0.10;;;-3.60;99.90;;;;;;5022936;28;20021;-85
2023/12/03 05:49:10;;;;;;;0.10;0.10;;;-3.70;99.90;;;;;;5023058;28;20123;-84
2023/12/03 05:51:36;;;;;;;0.10;0.10;;;-3.70;99.90;;;;;;5026090;28;20120;-84
2023/12/03 05:54:02;;;;;;;0.10;0.10;;;-3.70;99.90;;;;;;5028976;28;20380;-85
2023/12/03 05:56:28;;;;;;;0.10;0.10;;;-3.70;99.90;;;;;;5023729;28;20087;-85
2023/12/03 05:58:53;;;;;;;0.10;0.10;;;-3.80;99.90;;;;;;5024448;28;20733;-84
2023/12/03 06:01:25;;;;;;;3.20;3.00;;;-3.70;99.90;;;;;;5023418;28;20030;-84
2023/12/03 06:03:51;;;;;;;0.20;0.20;;;-3.80;99.90;;;;;;5023070;28;20029;-84
2023/12/03 06:06:17;;;;;;;0.20;0.20;;;-3.80;99.90;;;;;;5032344;28;20025;-82
2023/12/03 06:08:44;;;;;;;0.10;0.10;;;-3.70;99.90;;;;;;5018969;28;20096;-83
2023/12/03 06:11:09;;;;;;;0.30;0.30;;;-3.80;99.90;;;;;;5022978;28;20116;-82
2023/12/03 06:13:35;;;;;;;0.33;0.33;;;-3.80;99.90;;;;;;5026709;28;20031;-82
2023/12/03 06:16:01;;;;;;;0.10;0.10;;;-3.80;99.90;;;;;;5022445;28;20512;-82
2023/12/03 06:18:27;;;;;;;0.10;0.10;;;-3.90;99.90;;;;;;5020366;28;20029;-82
2023/12/03 06:20:53;;;;;;;4.83;4.30;;;-3.80;99.90;;;;;;5022306;28;20037;-82
2023/12/03 06:23:18;;;;;;;0.10;0.10;;;-3.80;99.90;;;;;;5022289;28;20035;-82
2023/12/03 06:25:44;;;;;;;0.10;0.10;;;-3.80;99.90;;;;;;5022522;28;20060;-82
2023/12/03 06:28:10;;;;;;;0.10;0.10;;;-4.00;99.90;;;;;;5021728;28;20841;-82
2023/12/03 06:30:36;;;;;;;0.30;0.30;;;-4.00;99.90;;;;;;5021758;28;20128;-82
2023/12/03 06:33:02;;;;;;;0.10;0.10;;;-4.00;99.90;;;;;;5022196;28;20270;-82
2023/12/03 06:35:28;;;;;;;0.10;0.10;;;-4.00;99.90;;;;;;5022054;28;20496;-83
2023/12/03 06:37:53;;;;;;;0.10;0.10;;;-4.00;99.90;;;;;;5022516;28;20056;-84
2023/12/03 06:40:19;;;;;;;0.63;0.63;;;-4.00;99.90;;;;;;5021295;28;20040;-84
2023/12/03 06:42:44;;;;;;;0.10;0.10;;;-4.10;99.90;;;;;;5022628;28;20026;-82
2023/12/03 06:45:11;;;;;;;1.60;1.50;;;-4.10;99.90;;;;;;5022237;28;20029;-82
2023/12/03 06:47:37;;;;;;;;;;;-4.10;99.90;;;;;;5031761;28;20495;-83
2023/12/03 06:50:03;;;;;;;0.10;0.10;;;-4.10;99.90;;;;;;5021648;28;19909;-82
2023/12/03 06:52:29;;;;;;;0.10;0.10;;;-4.10;99.90;;;;;;5021662;28;20485;-82
2023/12/03 06:54:54;;;;;;;0.10;0.10;;;-4.10;99.90;;;;;;5025271;28;20346;-82
2023/12/03 06:57:20;;;;;;;0.10;0.10;;;-4.10;99.90;;;;;;5027948;28;20025;-82
2023/12/03 06:59:46;;;;;;;2.20;1.85;;;-4.10;99.90;;;;;;5021766;28;20522;-83
2023/12/03 07:02:11;;;;;;;0.25;0.25;;;-4.10;99.90;;;;;;5021241;28;20339;-84
2023/12/03 07:04:37;;;;;;;0.17;0.17;;;-4.10;99.90;;;;;;5021509;28;20637;-84
2023/12/03 07:07:04;;;;;;;0.17;0.17;;;-4.00;99.90;;;;;;5019343;28;20550;-84
2023/12/03 07:09:30;;;;;;;0.10;0.10;;;-4.10;99.90;;;;;;5021021;28;20030;-83
2023/12/03 07:11:57;;;;;;;0.20;0.20;;;-4.10;99.90;;;;;;5020350;28;20465;-86
2023/12/03 07:14:23;;;;;;;;;;;-4.00;99.90;;;;;;5018995;28;20025;-84
2023/12/03 07:16:49;;;;;;;0.10;0.10;;;-3.90;99.90;;;;;;5021762;28;19990;-86
2023/12/03 07:19:14;;;;;;;0.13;0.13;;;-4.00;99.90;;;;;;5019284;28;20029;-85
2023/12/03 07:21:40;;;;;;;0.43;0.43;;;-3.90;99.90;;;;;;5018734;28;20105;-86
2023/12/03 07:24:07;;;;;;;0.20;0.20;;;-3.90;99.90;;;;;;5021085;28;20061;-88
2023/12/03 07:26:33;;;;;;;;;;;-3.90;99.90;;;;;;5022813;28;20053;-84
2023/12/03 07:28:58;;;;;;;0.10;0.10;;;-4.00;99.90;;;;;;5020560;28;19960;-88
2023/12/03 07:31:24;;;;;;;0.10;0.10;;;-4.00;99.90;;;;;;5022625;28;20523;-85
2023/12/03 07:33:50;;;;;;;0.10;0.10;;;-4.00;99.90;;;;;;5023012;28;20036;-84
2023/12/03 07:36:15;;;;;;;1.23;1.13;;;-4.00;99.90;;;;;;5022402;28;20432;-85
2023/12/03 07:38:41;;;;;;;0.10;0.10;;;-3.80;99.90;;;;;;5019748;28;20083;-84
2023/12/03 07:41:10;;;;;;;0.10;0.10;;;-3.80;99.90;;;;;;5022457;28;20034;-83
2023/12/03 07:43:36;;;;;;;0.10;0.10;;;-3.50;99.90;;;;;;5022734;28;20060;-87
2023/12/03 07:46:02;;;;;;;0.10;0.10;;;-3.00;99.90;;;;;;5025043;28;20063;-83
2023/12/03 07:48:27;;;;;;;0.95;0.95;;;-2.50;99.00;;;;;;5024510;28;20037;-83
2023/12/03 07:50:53;;;;;;;0.10;0.10;;;-2.20;98.00;;;;;;5025141;28;20037;-83
2023/12/03 07:53:19;;;;;;;0.10;0.10;;;-2.00;97.50;;;;;;5025093;28;20104;-83
2023/12/03 07:55:45;;;;;;;0.10;0.10;;;-1.50;96.60;;;;;;5024252;28;20025;-84
2023/12/03 07:58:11;;;;;;;0.90;0.73;;;-1.40;95.50;;;;;;5024457;28;20041;-85
2023/12/03 08:00:37;;;;;;;0.10;0.10;;;-1.70;95.60;;;;;;5024386;28;20373;-84
2023/12/03 08:03:03;;;;;;;0.10;0.10;;;-1.60;95.30;;;;;;5029773;28;20041;-84
2023/12/03 08:05:29;;;;;;;0.10;0.10;;;-1.40;95.30;;;;;;5025206;28;20029;-86
2023/12/03 08:07:54;;;;;;;0.00;0.00;;;-1.30;95.00;;;;;;5025188;28;20037;-84
2023/12/03 08:10:20;;;;;;;0.10;0.10;;;-1.10;94.20;;;;;;5025685;28;20208;-84
2023/12/03 08:12:46;;;;;;;0.10;0.10;;;-1.00;94.20;;;;;;5025486;28;20728;-85
2023/12/03 08:15:11;;;;;;;0.10;0.10;;;-0.80;93.90;;;;;;5024954;28;20056;-83
2023/12/03 08:17:37;;;;;;;0.10;0.10;;;-0.60;93.80;;;;;;5023753;28;20033;-85
2023/12/03 08:20:05;;;;;;;0.10;0.10;;;-0.60;93.40;;;;;;5018379;28;20094;-85
2023/12/03 08:22:31;;;;;;;0.28;0.28;;;-0.50;93.30;;;;;;5016211;28;20850;-85
2023/12/03 08:24:57;;;;;;;0.10;0.10;;;-0.50;92.50;;;;;;5022365;28;20485;-83
2023/12/03 08:27:22;;;;;;;0.08;0.08;;;-0.60;93.10;;;;;;5023122;28;20044;-82
2023/12/03 08:29:48;;;;;;;0.20;0.20;;;-0.80;93.30;;;;;;5023209;28;20152;-82
2023/12/03 08:32:14;;;;;;;0.10;0.10;;;-0.80;93.40;;;;;;5023260;28;20034;-81
2023/12/03 08:34:40;;;;;;;0.00;0.00;;;-0.70;93.00;;;;;;5023212;28;20041;-83
2023/12/03 08:37:05;;;;;;;0.10;0.10;;;-0.70;93.30;;;;;;5023454;28;20034;-83
2023/12/03 08:39:31;;;;;;;0.40;0.40;;;-0.70;93.20;;;;;;5022699;28;20913;-83
2023/12/03 08:41:57;;;;;;;0.00;0.00;;;-0.70;93.00;;;;;;5023092;28;20479;-83
2023/12/03 08:44:25;;;;;;;3.58;3.05;;;-0.50;92.80;;;;;;5022295;28;20045;-83
2023/12/03 08:46:51;;;;;;;0.10;0.10;;;-0.50;92.80;;;;;;5023847;28;20131;-82
2023/12/03 08:49:17;;;;;;;0.17;0.17;;;-0.40;92.80;;;;;;5023142;28;20524;-82
2023/12/03 08:51:45;;;;;;;0.10;0.10;;;-0.40;92.50;;;;;;5023445;28;20104;-83
2023/12/03 08:54:10;;;;;;;0.03;0.03;;;-0.30;92.70;;;;;;5022241;28;20366;-79
2023/12/03 08:56:37;;;;;;;0.10;0.10;;;-0.10;92.20;;;;;;5022815;28;20033;-82
2023/12/03 08:59:02;;;;;;;0.03;0.03;;;0.00;92.30;;;;;;5023439;28;20283;-81
2023/12/03 09:01:28;;;;;;;0.25;0.25;;;-0.20;92.20;;;;;;5022972;28;20080;-83
2023/12/03 09:03:54;;;;;;;0.10;0.10;;;-0.10;92.00;;;;;;5023092;28;20120;-79
2023/12/03 09:06:20;;;;;;;0.10;0.10;;;-0.10;91.80;;;;;;5019549;28;20035;-83
2023/12/03 09:08:46;;;;;;;0.10;0.10;;;0.40;92.20;;;;;;5019389;28;20034;-82
2023/12/03 09:11:11;;;;;;;0.10;0.10;;;0.30;91.80;;;;;;5022880;28;20067;-81
2023/12/03 09:13:37;;;;;;;0.13;0.13;;;0.30;91.80;;;;;;5023158;28;20044;-81
2023/12/03 09:16:03;;;;;;;0.10;0.10;;;0.20;91.70;;;;;;5021441;28;20029;-81
2023/12/03 09:18:29;;;;;;;0.10;0.10;;;0.30;91.70;;;;;;5022545;28;20037;-81
2023/12/03 09:20:55;;;;;;;0.10;0.10;;;0.50;91.90;;;;;;5020353;28;20501;-81
2023/12/03 09:23:20;;;;;;;0.10;0.10;;;0.30;91.60;;;;;;5016865;28;20109;-81
2023/12/03 09:25:46;;;;;;;0.10;0.10;;;0.40;91.90;;;;;;5019584;28;20808;-81
2023/12/03 09:28:11;;;;;;;0.10;0.10;;;0.40;92.10;;;;;;5020404;28;20099;-81
2023/12/03 09:30:37;;;;;;;0.10;0.10;;;0.60;92.30;;;;;;5023008;28;20054;-80
2023/12/03 09:33:04;;;;;;;0.10;0.10;;;0.40;91.40;;;;;;5023653;28;20037;-80
2023/12/03 09:35:31;;;;;;;0.08;0.08;;;0.70;92.00;;;;;;5023127;28;20029;-81
2023/12/03 09:37:56;;;;;;;0.10;0.10;;;0.70;91.40;;;;;;5021387;28;20025;-79
2023/12/03 09:40:23;;;;;;;0.10;0.10;;;0.60;90.80;;;;;;5019212;28;20480;-80
2023/12/03 09:42:50;;;;;;;0.10;0.10;;;0.70;91.00;;;;;;5006132;28;20171;-79
2023/12/03 09:45:19;;;;;;;0.10;0.10;;;0.70;90.80;;;;;;5012864;28;20037;-80
2023/12/03 09:47:53;;;;;;;0.10;0.10;;;0.70;91.70;;;;;;5012591;28;20018;-79
2023/12/03 09:50:20;;;;;;;0.00;0.00;;;0.80;90.80;;;;;;5019697;28;20040;-78
2023/12/03 09:52:51;;;;;;;0.10;0.10;;;0.60;90.60;;;;;;5022861;28;20025;-80
2023/12/03 09:55:19;;;;;;;0.10;0.10;;;0.80;90.60;;;;;;5023246;28;20030;-79
2023/12/03 09:57:47;;;;;;;0.10;0.10;;;0.80;91.10;;;;;;5015825;28;20448;-80
2023/12/03 10:00:14;;;;;;;0.10;0.10;;;1.00;90.90;;;;;;5022664;28;20041;-79
2023/12/03 10:02:40;;;;;;;0.10;0.10;;;1.00;90.50;;;;;;5016593;28;20026;-79
2023/12/03 10:05:06;;;;;;;0.10;0.10;;;1.10;90.90;;;;;;5015322;28;20053;-79
2023/12/03 10:07:32;;;;;;;0.47;0.47;;;1.00;90.20;;;;;;5018704;28;20028;-80
2023/12/03 10:09:59;;;;;;;0.10;0.10;;;1.10;90.40;;;;;;5022441;28;20029;-79
2023/12/03 10:12:25;;;;;;;;;;;0.90;90.20;;;;;;5022894;28;20065;-79
2023/12/03 10:14:51;;;;;;;0.10;0.10;;;1.00;91.20;;;;;;5023068;28;20265;-78
2023/12/03 10:17:21;;;;;;;0.10;0.10;;;1.30;91.30;;;;;;5024588;28;20029;-81
2023/12/03 10:19:46;;;;;;;4.30;1.00;;;1.30;90.70;;;;;;5021557;28;20068;-80
2023/12/03 10:22:12;;;;;;;0.10;0.10;;;1.20;90.70;;;;;;5022088;28;20942;-78
2023/12/03 10:24:48;;;;;;;0.10;0.10;;;1.20;90.20;;;;;;5022190;28;20029;-80
2023/12/03 10:27:14;;;;;;;0.10;0.10;;;1.30;90.60;;;;;;5021757;28;20116;-80
2023/12/03 10:29:40;;;;;;;0.10;0.10;;;1.30;90.10;;;;;;5017013;28;20037;-80
2023/12/03 10:32:07;;;;;;;0.43;0.43;;;1.20;90.30;;;;;;5009701;28;20444;-80
2023/12/03 10:34:33;;;;;;;0.10;0.10;;;1.30;90.80;;;;;;5022004;28;20116;-83
2023/12/03 10:37:01;;;;;;;0.20;0.20;;;1.40;90.90;;;;;;5019939;28;20032;-82
2023/12/03 10:39:26;;;;;;;0.13;0.13;;;1.50;90.90;;;;;;5008479;28;20025;-81
2023/12/03 10:41:52;;;;;;;0.10;0.10;;;1.30;90.70;;;;;;5021232;28;20060;-80
2023/12/03 10:44:23;;;;;;;0.17;0.17;;;1.40;90.30;;;;;;5021997;28;20068;-79
2023/12/03 10:46:52;;;;;;;0.47;0.47;;;1.60;90.60;;;;;;5017691;28;20032;-81
2023/12/03 10:49:20;;;;;;;0.10;0.10;;;1.60;90.80;;;;;;5016946;28;20029;-84
2023/12/03 10:51:47;;;;;;;0.10;0.10;;;1.70;91.10;;;;;;5022234;28;20095;-86
2023/12/03 10:54:13;;;;;;;0.10;0.10;;;1.70;90.70;;;;;;5021144;28;20033;-86
2023/12/03 10:56:41;;;;;;;0.15;0.15;;;1.80;90.70;;;;;;5013413;28;20515;-84
2023/12/03 10:59:13;;;;;;;4.03;1.13;;;1.80;90.40;;;;;;5019580;28;20022;-86
2023/12/03 11:01:47;;;;;;;0.10;0.10;;;1.90;90.70;;;;;;5022118;28;20034;-86
2023/12/03 11:04:25;;;;;;;0.40;0.40;;;2.20;90.40;;;;;;5020307;28;20168;-86
2023/12/03 11:06:53;;;;;;;0.10;0.10;;;2.20;91.10;;;;;;5015137;28;20054;-87
2023/12/03 11:09:20;;;;;;;0.10;0.10;;;2.30;90.10;;;;;;5021188;28;20388;-86
2023/12/03 11:11:47;;;;;;;0.10;0.10;;;2.40;90.20;;;;;;5020059;28;20029;-85
2023/12/03 11:14:14;;;;;;;0.20;0.20;;;2.30;90.10;;;;;;5022398;28;20033;-86
2023/12/03 11:17:11;;;;;;;0.10;0.10;;;2.40;90.00;;;;;;5021086;28;20036;-86
2023/12/03 11:19:37;;;;;;;;;;;2.50;90.50;;;;;;5012884;28;20083;-85
2023/12/03 11:22:33;;;;;;;0.10;0.10;;;2.50;90.10;;;;;;5026216;28;20019;-81
2023/12/03 11:25:12;;;;;;;0.30;0.30;;;2.60;90.20;;;;;;5018442;28;20100;-84
2023/12/03 11:27:46;;;;;;;0.70;0.70;;;2.50;90.80;;;;;;5025505;28;20033;-87
2023/12/03 11:30:14;;;;;;;0.10;0.10;;;2.60;90.70;;;;;;5022366;28;20053;-87
2023/12/03 11:32:40;;;;;;;1.77;1.10;;;2.70;90.70;;;;;;5021952;28;20033;-87
2023/12/03 11:35:08;;;;;;;0.10;0.10;;;2.60;90.80;;;;;;5021748;28;20045;-86
2023/12/03 11:37:34;;;;;;;0.50;0.50;;;2.50;90.60;;;;;;5025632;28;20025;-87
2023/12/03 11:40:08;;;;;;;0.10;0.10;;;2.50;90.90;;;;;;5022970;28;20060;-87
2023/12/03 11:42:41;;;;;;;0.10;0.10;;;2.50;91.00;;;;;;5024484;28;20025;-87
2023/12/03 11:45:21;;;;;;;0.10;0.10;;;2.50;90.60;;;;;;5025769;28;20053;-86
2023/12/03 11:48:08;;;;;;;0.10;0.10;;;2.50;90.50;;;;;;5020647;28;20623;-87
2023/12/03 11:50:41;;;;;;;0.10;0.10;;;2.70;90.70;;;;;;5033911;28;20037;-86
2023/12/03 11:53:08;;;;;;;0.10;0.10;;;2.70;91.30;;;;;;5025575;28;20025;-87
2023/12/03 11:55:36;;;;;;;0.20;0.20;;;2.80;91.30;;;;;;5025106;28;20036;-87
2023/12/03 11:58:06;;;;;;;0.10;0.10;;;2.80;90.60;;;;;;5024480;28;20025;-87
2023/12/03 12:00:33;;;;;;;1.15;1.05;;;2.90;91.10;;;;;;5025648;28;20037;-87
2023/12/03 12:03:04;;;;;;;0.10;0.10;;;2.90;91.90;;;;;;5025461;28;20029;-86
2023/12/03 12:05:30;;;;;;;0.10;0.10;;;3.00;91.30;;;;;;5019626;28;20050;-86
2023/12/03 12:08:03;;;;;;;0.10;0.10;;;3.00;91.60;;;;;;5025126;28;20025;-89
2023/12/03 12:10:32;;;;;;;0.10;0.10;;;3.10;91.70;;;;;;5027736;28;20064;-89
2023/12/03 12:12:59;;;;;;;0.20;0.20;;;3.00;91.20;;;;;;5026782;28;20043;-89
2023/12/03 12:15:25;;;;;;;0.20;0.20;;;3.00;91.60;;;;;;5023542;28;20475;-87
2023/12/03 12:17:51;;;;;;;0.10;0.10;;;3.10;91.10;;;;;;5022873;28;20038;-89
2023/12/03 12:20:27;;;;;;;0.10;0.10;;;3.00;91.00;;;;;;5025224;28;20497;-88
2023/12/03 12:22:54;;;;;;;0.10;0.10;;;3.00;90.90;;;;;;5021448;28;20120;-89
2023/12/03 12:25:21;;;;;;;0.10;0.10;;;3.00;91.10;;;;;;5024866;28;20073;-89
2023/12/03 12:27:51;;;;;;;0.10;0.10;;;3.00;91.30;;;;;;5023844;28;20025;-88
2023/12/03 12:30:18;;;;;;;0.10;0.10;;;3.20;91.90;;;;;;5023815;28;20440;-89
2023/12/03 12:32:45;;;;;;;1.25;0.85;;;3.00;91.50;;;;;;5023406;28;20568;-89
2023/12/03 12:35:11;;;;;;;1.90;0.65;;;3.10;91.70;;;;;;5024438;28;20022;-90
2023/12/03 12:37:37;;;;;;;0.10;0.10;;;3.10;91.40;;;;;;5024611;28;20025;-89
2023/12/03 12:40:11;;;;;;;0.20;0.20;;;3.20;91.60;;;;;;5024892;28;20116;-89
2023/12/03 12:42:42;;;;;;;0.10;0.10;;;3.30;92.10;;;;;;5019775;28;20052;-88
2023/12/03 12:45:28;;;;;;;0.10;0.10;;;3.30;91.20;;;;;;5024996;28;20041;-89
2023/12/03 12:47:54;;;;;;;;;;;3.40;91.60;;;;;;5024096;28;20033;-89
2023/12/03 12:50:32;;;;;;;2.63;1.30;;;3.40;91.60;;;;;;5024386;28;20254;-89